createdAt,value
2019-04-21T00:00:35.582Z,13.80
2019-04-21T00:03:16.446Z,13.47
2019-04-21T00:06:03.234Z,14.10
2019-04-21T00:08:50.870Z,13.50
2019-04-21T00:11:09.742Z,13.83
2019-04-21T00:13:39.662Z,14.10
2019-04-21T00:16:03.405Z,14.77
2019-04-21T00:18:58.017Z,14.30
2019-04-21T00:21:34.376Z,14.17
2019-04-21T00:24:30.247Z,13.30
2019-04-21T00:27:01.929Z,13.03
2019-04-21T00:29:52.001Z,12.70
2019-04-21T00:32:06.813Z,12.53
2019-04-21T00:34:28.085Z,12.50
2019-04-21T00:37:12.180Z,13.20
2019-04-21T00:40:01.824Z,13.90
2019-04-21T00:42:31.865Z,13.67
2019-04-21T00:44:58.943Z,15.13
2019-04-21T00:47:34.060Z,14.03
2019-04-21T00:50:24.726Z,14.87
2019-04-21T00:53:03.540Z,15.00
2019-04-21T00:56:01.500Z,15.73
2019-04-21T00:58:36.713Z,14.83
2019-04-21T01:01:05.898Z,14.27
2019-04-21T01:03:41.732Z,12.53
2019-04-21T01:06:14.381Z,13.03
2019-04-21T01:08:41.342Z,13.93
2019-04-21T01:11:17.849Z,14.37
2019-04-21T01:14:00.993Z,15.30
2019-04-21T01:16:29.518Z,13.57
2019-04-21T01:18:56.564Z,15.07
2019-04-21T01:21:14.466Z,14.23
2019-04-21T01:23:46.500Z,14.43
2019-04-21T01:26:37.264Z,15.40
2019-04-21T01:29:05.432Z,16.50
2019-04-21T01:31:41.919Z,16.20
2019-04-21T01:34:24.894Z,16.03
2019-04-21T01:36:52.450Z,15.27
2019-04-21T01:39:35.241Z,14.73
2019-04-21T01:42:03.520Z,17.20
2019-04-21T01:44:44.472Z,17.23
2019-04-21T01:47:06.120Z,17.67
2019-04-21T01:49:39.405Z,16.70
2019-04-21T01:52:23.784Z,17.33
2019-04-21T01:55:10.790Z,16.77
2019-04-21T01:58:00.417Z,15.83
2019-04-21T02:00:41.179Z,16.57
2019-04-21T02:03:34.507Z,17.03
2019-04-21T02:06:02.976Z,17.13
2019-04-21T02:08:27.491Z,15.33
2019-04-21T02:11:09.186Z,15.50
2019-04-21T02:13:35.203Z,16.40
2019-04-21T02:16:11.247Z,16.43
2019-04-21T02:18:39.123Z,16.10
2019-04-21T02:21:03.706Z,16.93
2019-04-21T02:23:57.688Z,17.33
2019-04-21T02:26:31.962Z,17.60
2019-04-21T02:29:03.261Z,17.97
2019-04-21T02:34:16.123Z,19.77
2019-04-21T02:42:03.355Z,19.77
2019-04-21T02:44:37.732Z,20.47
2019-04-21T02:46:54.751Z,18.37
2019-04-21T02:49:57.395Z,19.43
2019-04-21T02:52:25.862Z,20.23
2019-04-21T03:05:50.785Z,19.07
2019-04-21T03:10:54.096Z,20.43
2019-04-21T03:13:21.612Z,20.13
2019-04-21T03:15:59.137Z,18.80
2019-04-21T03:21:13.380Z,21.00
2019-04-21T03:26:23.065Z,20.63
2019-04-21T03:28:37.426Z,19.93
2019-04-21T03:31:49.703Z,20.87
2019-04-21T03:34:29.350Z,20.77
2019-04-21T03:41:31.784Z,18.27
2019-04-21T03:46:41.309Z,20.60
2019-04-21T03:49:19.227Z,21.30
2019-04-21T03:51:48.659Z,20.77
2019-04-21T03:54:16.129Z,22.70
2019-04-21T03:57:10.825Z,21.50
2019-04-21T03:59:16.106Z,19.07
2019-04-21T04:02:23.007Z,20.43
2019-04-21T04:05:10.956Z,20.40
2019-04-21T04:10:22.822Z,18.67
2019-04-21T04:12:57.187Z,18.47
2019-04-21T04:15:45.388Z,18.30
2019-04-21T04:18:28.298Z,18.37
2019-04-21T04:20:35.613Z,18.63
2019-04-21T04:25:42.622Z,18.73
2019-04-21T04:28:23.037Z,19.03
2019-04-21T04:30:56.219Z,18.00
2019-04-21T04:36:15.637Z,18.53
2019-04-21T04:38:39.599Z,16.60
2019-04-21T04:43:54.461Z,18.27
2019-04-21T04:46:29.349Z,18.77
2019-04-21T04:49:03.905Z,17.63
2019-04-21T04:51:43.836Z,17.47
2019-04-21T04:54:05.902Z,16.60
2019-04-21T04:56:44.534Z,16.50
2019-04-21T05:01:53.100Z,18.07
2019-04-21T05:04:30.409Z,17.73
2019-04-21T05:09:30.695Z,16.03
2019-04-21T05:11:55.668Z,16.87
2019-04-21T05:14:30.429Z,16.60
2019-04-21T05:17:19.649Z,15.40
2019-04-21T05:19:48.945Z,16.43
2019-04-21T05:22:17.189Z,15.87
2019-04-21T05:24:42.009Z,14.40
2019-04-21T05:27:29.605Z,14.35
2019-04-21T05:30:17.338Z,13.60
2019-04-21T05:32:52.970Z,14.33
2019-04-21T05:35:45.070Z,13.90
2019-04-21T05:38:25.466Z,13.78
2019-04-21T05:40:49.841Z,13.50
2019-04-21T05:43:32.510Z,13.32
2019-04-21T05:46:10.476Z,13.70
2019-04-21T05:48:39.227Z,16.20
2019-04-21T05:51:13.039Z,13.20
2019-04-21T05:53:48.037Z,12.65
2019-04-21T05:56:24.276Z,12.93
2019-04-21T05:59:00.173Z,13.25
2019-04-21T06:01:37.802Z,12.35
2019-04-21T06:04:14.025Z,12.45
2019-04-21T06:06:39.372Z,12.20
2019-04-21T06:09:15.554Z,12.05
2019-04-21T06:11:51.267Z,11.83
2019-04-21T06:14:25.357Z,12.88
2019-04-21T06:16:55.616Z,12.50
2019-04-21T06:19:36.978Z,12.07
2019-04-21T06:22:03.608Z,11.38
2019-04-21T06:24:42.326Z,12.00
2019-04-21T06:27:19.442Z,11.55
2019-04-21T06:29:46.659Z,11.83
2019-04-21T06:32:37.443Z,10.80
2019-04-21T06:37:43.542Z,10.53
2019-04-21T06:40:15.875Z,9.88
2019-04-21T06:42:43.002Z,9.55
2019-04-21T06:45:14.263Z,11.53
2019-04-21T06:48:05.950Z,10.98
2019-04-21T06:50:23.954Z,9.80
2019-04-21T06:53:01.111Z,8.90
2019-04-21T06:55:29.265Z,9.88
2019-04-21T06:57:58.226Z,9.88
2019-04-21T07:00:31.832Z,9.73
2019-04-21T07:03:14.155Z,9.28
2019-04-21T07:05:50.474Z,8.33
2019-04-21T07:10:52.073Z,8.15
2019-04-21T07:13:22.296Z,8.50
2019-04-21T07:15:57.176Z,7.72
2019-04-21T07:18:34.327Z,7.22
2019-04-21T07:21:06.444Z,7.75
2019-04-21T07:23:45.939Z,7.17
2019-04-21T07:26:11.132Z,7.10
2019-04-21T07:28:51.274Z,6.72
2019-04-21T07:31:24.987Z,6.25
2019-04-21T07:34:01.550Z,7.28
2019-04-21T07:36:41.165Z,7.20
2019-04-21T07:39:02.005Z,8.58
2019-04-21T07:41:31.006Z,7.42
2019-04-21T07:43:59.141Z,7.95
2019-04-21T07:46:33.686Z,6.65
2019-04-21T07:49:32.926Z,6.45
2019-04-21T07:52:29.040Z,6.05
2019-04-21T07:55:12.934Z,6.47
2019-04-21T07:57:31.840Z,6.05
2019-04-21T08:00:21.260Z,6.05
2019-04-21T08:02:47.667Z,5.85
2019-04-21T08:07:52.055Z,5.60
2019-04-21T08:10:15.719Z,4.75
2019-04-21T08:12:56.410Z,4.72
2019-04-21T08:15:38.293Z,4.65
2019-04-21T08:17:59.705Z,5.10
2019-04-21T08:20:34.647Z,5.28
2019-04-21T08:23:13.156Z,5.75
2019-04-21T08:25:53.336Z,4.62
2019-04-21T08:28:22.065Z,4.87
2019-04-21T08:30:47.310Z,5.10
2019-04-21T08:33:32.378Z,4.70
2019-04-21T08:38:35.838Z,4.80
2019-04-21T08:41:11.076Z,3.92
2019-04-21T08:46:19.840Z,4.33
2019-04-21T08:48:52.717Z,4.30
2019-04-21T08:51:27.514Z,4.00
2019-04-21T08:56:52.642Z,5.00
2019-04-21T08:59:52.057Z,6.03
2019-04-21T09:02:35.797Z,7.37
2019-04-21T09:05:04.700Z,8.28
2019-04-21T09:10:12.645Z,11.45
2019-04-21T09:12:49.140Z,11.78
2019-04-21T09:15:21.579Z,13.22
2019-04-21T09:17:44.604Z,14.13
2019-04-21T09:20:32.994Z,15.88
2019-04-21T09:23:00.801Z,17.77
2019-04-21T09:25:40.761Z,18.50
2019-04-21T09:28:04.050Z,17.55
2019-04-21T09:30:26.341Z,16.60
2019-04-21T09:33:00.196Z,16.80
2019-04-21T09:35:33.447Z,18.62
2019-04-21T09:38:15.990Z,18.73
2019-04-21T09:40:44.127Z,20.30
2019-04-21T09:43:18.711Z,21.57
2019-04-21T09:45:47.587Z,23.32
2019-04-21T09:48:22.463Z,24.92
2019-04-21T09:50:53.592Z,28.77
2019-04-21T09:53:33.226Z,30.72
2019-04-21T09:56:03.372Z,32.55
2019-04-21T09:58:40.282Z,33.33
2019-04-21T10:01:17.507Z,30.65
2019-04-21T10:03:46.624Z,32.28
2019-04-21T10:06:17.321Z,34.03
2019-04-21T10:08:55.741Z,35.65
2019-04-21T10:11:22.665Z,27.45
2019-04-21T10:13:55.164Z,10.98
2019-04-21T10:17:04.742Z,8.25
2019-04-21T10:19:36.979Z,9.35
2019-04-21T10:22:10.483Z,11.50
2019-04-21T10:24:42.629Z,14.20
2019-04-21T10:27:14.840Z,18.05
2019-04-21T10:29:48.590Z,25.10
2019-04-21T10:32:23.465Z,28.75
2019-04-21T10:34:55.449Z,28.52
2019-04-21T10:37:38.877Z,26.80
2019-04-21T10:40:01.293Z,27.95
2019-04-21T10:42:33.564Z,28.80
2019-04-21T10:45:07.208Z,32.67
2019-04-21T10:47:41.018Z,38.00
2019-04-21T10:50:13.419Z,28.45
2019-04-21T10:53:03.057Z,27.22
2019-04-21T10:55:49.209Z,28.27
2019-04-21T10:58:22.554Z,28.55
2019-04-21T11:01:01.979Z,27.82
2019-04-21T11:03:58.677Z,29.63
2019-04-21T11:06:30.982Z,27.93
2019-04-21T11:09:05.474Z,24.43
2019-04-21T11:11:37.701Z,20.00
2019-04-21T11:14:11.571Z,16.40
2019-04-21T11:16:45.952Z,13.70
2019-04-21T11:19:18.045Z,10.45
2019-04-21T11:21:50.607Z,8.40
2019-04-21T11:24:24.939Z,6.67
2019-04-21T11:26:58.143Z,5.90
2019-04-21T11:29:31.012Z,4.62
2019-04-21T11:32:03.115Z,3.55
2019-04-21T11:34:35.098Z,2.58
2019-04-21T11:37:10.169Z,2.00
2019-04-21T11:39:52.106Z,2.35
2019-04-21T11:42:21.820Z,2.70
2019-04-21T11:44:53.815Z,2.60
2019-04-21T11:47:30.639Z,2.25
2019-04-21T11:50:03.368Z,2.45
2019-04-21T11:52:35.289Z,2.33
2019-04-21T11:55:09.000Z,3.17
2019-04-21T11:57:44.981Z,2.80
2019-04-21T12:00:15.751Z,2.98
2019-04-21T12:02:47.907Z,2.93
2019-04-21T12:05:21.403Z,3.20
2019-04-21T12:07:53.563Z,3.20
2019-04-21T12:10:25.524Z,2.80
2019-04-21T12:12:57.691Z,3.20
2019-04-21T12:15:29.669Z,2.90
2019-04-21T12:18:01.777Z,3.50
2019-04-21T12:20:35.517Z,3.20
2019-04-21T12:23:08.833Z,3.03
2019-04-21T12:25:47.273Z,2.70
2019-04-21T12:28:19.981Z,2.90
2019-04-21T12:30:54.179Z,3.00
2019-04-21T12:33:38.193Z,2.27
2019-04-21T12:36:11.593Z,3.43
2019-04-21T12:38:50.917Z,3.63
2019-04-21T12:41:18.365Z,3.00
2019-04-21T12:43:50.838Z,2.67
2019-04-21T12:46:23.094Z,2.80
2019-04-21T12:48:55.871Z,3.27
2019-04-21T12:51:28.083Z,3.27
2019-04-21T12:54:01.606Z,2.83
2019-04-21T12:56:34.018Z,2.37
2019-04-21T12:59:08.004Z,2.90
2019-04-21T13:01:41.171Z,2.83
2019-04-21T13:04:13.640Z,2.70
2019-04-21T13:06:45.855Z,2.60
2019-04-21T13:09:20.277Z,2.80
2019-04-21T13:11:51.600Z,2.80
2019-04-21T13:14:24.043Z,2.50
2019-04-21T13:16:57.339Z,3.40
2019-04-21T13:19:29.905Z,2.93
2019-04-21T13:22:01.975Z,3.00
2019-04-21T13:24:33.953Z,3.80
2019-04-21T13:27:07.471Z,3.53
2019-04-21T13:29:40.203Z,4.60
2019-04-21T13:32:12.558Z,2.70
2019-04-21T13:34:46.275Z,3.07
2019-04-21T13:37:19.494Z,3.30
2019-04-21T13:40:27.900Z,3.00
2019-04-21T13:42:45.616Z,2.93
2019-04-21T13:45:13.994Z,3.00
2019-04-21T13:47:46.334Z,3.40
2019-04-21T13:50:21.474Z,3.40
2019-04-21T13:52:54.464Z,3.60
2019-04-21T13:55:27.554Z,3.00
2019-04-21T13:57:59.807Z,3.10
2019-04-21T14:00:32.006Z,3.10
2019-04-21T14:03:04.776Z,3.20
2019-04-21T14:05:38.128Z,2.73
2019-04-21T14:08:11.278Z,2.90
2019-04-21T14:10:43.932Z,2.77
2019-04-21T14:13:16.452Z,2.97
2019-04-21T14:15:50.432Z,2.90
2019-04-21T14:18:22.655Z,2.93
2019-04-21T14:20:55.433Z,3.20
2019-04-21T14:23:35.544Z,3.13
2019-04-21T14:26:01.771Z,3.03
2019-04-21T14:28:33.807Z,2.77
2019-04-21T14:31:06.198Z,2.70
2019-04-21T14:33:38.320Z,2.70
2019-04-21T14:36:10.751Z,3.10
2019-04-21T14:38:42.810Z,3.17
2019-04-21T14:41:14.775Z,3.10
2019-04-21T14:43:47.998Z,2.90
2019-04-21T14:46:49.180Z,2.90
2019-04-21T14:49:42.927Z,3.70
2019-04-21T14:52:21.189Z,3.10
2019-04-21T14:55:12.202Z,3.10
2019-04-21T14:57:45.202Z,3.23
2019-04-21T15:00:19.079Z,3.00
2019-04-21T15:02:51.839Z,2.50
2019-04-21T15:05:25.138Z,3.23
2019-04-21T15:07:57.314Z,3.20
2019-04-21T15:10:32.226Z,3.60
2019-04-21T15:13:03.547Z,3.73
2019-04-21T15:15:36.122Z,3.10
2019-04-21T15:18:08.524Z,3.33
2019-04-21T15:20:40.548Z,3.40
2019-04-21T15:23:12.610Z,3.40
2019-04-21T15:25:45.937Z,3.37
2019-04-21T15:28:18.239Z,3.27
2019-04-21T15:30:50.780Z,3.23
2019-04-21T15:33:22.786Z,3.20
2019-04-21T15:35:55.361Z,3.30
2019-04-21T15:38:27.703Z,3.27
2019-04-21T15:41:03.842Z,3.50
2019-04-21T15:43:33.965Z,3.20
2019-04-21T15:46:06.799Z,3.30
2019-04-21T15:48:41.386Z,3.60
2019-04-21T15:51:13.642Z,3.30
2019-04-21T15:53:46.232Z,3.47
2019-04-21T15:56:28.921Z,3.40
2019-04-21T15:59:19.109Z,3.43
2019-04-21T16:02:19.556Z,4.80
2019-04-21T16:04:54.750Z,3.53
2019-04-21T16:07:26.964Z,3.70
2019-04-21T16:09:59.815Z,3.40
2019-04-21T16:12:31.941Z,4.10
2019-04-21T16:15:04.950Z,3.43
2019-04-21T16:17:37.407Z,4.50
2019-04-21T16:20:10.229Z,3.03
2019-04-21T16:22:42.398Z,3.30
2019-04-21T16:25:15.046Z,3.20
2019-04-21T16:27:47.644Z,3.70
2019-04-21T16:30:21.837Z,4.27
2019-04-21T16:32:54.441Z,3.87
2019-04-21T16:35:26.856Z,3.40
2019-04-21T16:38:00.793Z,3.30
2019-04-21T16:40:43.201Z,2.87
2019-04-21T16:43:06.324Z,2.90
2019-04-21T16:45:39.131Z,2.80
2019-04-21T16:48:12.877Z,3.20
2019-04-21T16:50:45.750Z,2.80
2019-04-21T16:53:28.211Z,3.00
2019-04-21T16:56:08.969Z,3.40
2019-04-21T16:58:54.733Z,3.30
2019-04-21T17:01:30.120Z,3.67
2019-04-21T17:04:04.494Z,3.20
2019-04-21T17:06:38.251Z,2.90
2019-04-21T17:09:10.785Z,3.30
2019-04-21T17:11:44.682Z,3.70
2019-04-21T17:14:31.235Z,3.03
2019-04-21T17:17:14.606Z,3.43
2019-04-21T17:19:29.820Z,3.43
2019-04-21T17:21:59.689Z,3.00
2019-04-21T17:24:32.572Z,3.60
2019-04-21T17:27:05.107Z,3.30
2019-04-21T17:29:38.425Z,3.63
2019-04-21T17:32:12.186Z,3.80
2019-04-21T17:34:45.732Z,4.17
2019-04-21T17:37:20.537Z,4.00
2019-04-21T17:39:52.572Z,4.07
2019-04-21T17:42:34.501Z,3.50
2019-04-21T17:44:59.354Z,3.70
2019-04-21T17:47:43.298Z,3.70
2019-04-21T17:50:29.465Z,3.70
2019-04-21T17:53:10.773Z,3.80
2019-04-21T17:55:42.748Z,3.43
2019-04-21T17:58:34.163Z,3.60
2019-04-21T18:01:12.829Z,3.73
2019-04-21T18:06:10.079Z,4.20
2019-04-21T18:08:53.395Z,4.07
2019-04-21T18:11:17.909Z,4.40
2019-04-21T18:13:40.037Z,3.67
2019-04-21T18:16:22.977Z,4.30
2019-04-21T18:18:46.666Z,5.20
2019-04-21T18:21:28.733Z,5.40
2019-04-21T18:24:08.039Z,6.10
2019-04-21T18:26:46.771Z,5.70
2019-04-21T18:29:09.962Z,5.17
2019-04-21T18:31:48.445Z,5.07
2019-04-21T18:34:42.815Z,5.30
2019-04-21T18:37:26.200Z,5.13
2019-04-21T18:40:02.682Z,5.53
2019-04-21T18:42:47.891Z,6.00
2019-04-21T18:45:50.414Z,5.30
2019-04-21T18:48:19.396Z,5.40
2019-04-21T18:51:04.720Z,5.00
2019-04-21T18:53:58.291Z,6.60
2019-04-21T18:56:18.925Z,5.00
2019-04-21T18:58:50.946Z,5.70
2019-04-21T19:01:27.703Z,5.30
2019-04-21T19:03:58.308Z,5.33
2019-04-21T19:06:45.879Z,5.63
2019-04-21T19:09:21.665Z,5.87
2019-04-21T19:11:59.234Z,6.03
2019-04-21T19:14:35.713Z,6.77
2019-04-21T19:17:38.198Z,8.60
2019-04-21T19:22:15.608Z,10.20
2019-04-21T19:24:54.871Z,12.60
2019-04-21T19:32:28.854Z,12.77
2019-04-21T19:34:49.692Z,12.10
2019-04-21T19:37:26.174Z,14.73
2019-04-21T19:40:07.733Z,13.20
2019-04-21T19:42:39.254Z,11.37
2019-04-21T19:45:19.278Z,11.90
2019-04-21T19:47:55.875Z,10.73
2019-04-21T19:50:25.994Z,10.33
2019-04-21T19:52:51.944Z,10.70
2019-04-21T19:55:18.359Z,11.03
2019-04-21T19:57:52.663Z,11.17
2019-04-21T20:00:26.538Z,10.27
2019-04-21T20:02:58.785Z,10.70
2019-04-21T20:05:39.055Z,10.67
2019-04-21T20:08:22.406Z,13.37
2019-04-21T20:11:01.174Z,13.27
2019-04-21T20:13:45.377Z,12.70
2019-04-21T20:16:09.102Z,12.53
2019-04-21T20:18:30.153Z,12.20
2019-04-21T20:20:56.457Z,12.47
2019-04-21T20:23:33.661Z,12.43
2019-04-21T20:26:06.806Z,12.30
2019-04-21T20:28:49.191Z,12.83
2019-04-21T20:31:29.258Z,12.10
2019-04-21T20:34:06.271Z,13.27
2019-04-21T20:36:43.086Z,12.93
2019-04-21T20:39:01.740Z,13.57
2019-04-21T20:41:40.896Z,13.57
2019-04-21T20:44:21.545Z,13.40
2019-04-21T20:46:51.005Z,15.33
2019-04-21T20:49:20.804Z,17.27
2019-04-21T20:52:08.012Z,16.43
2019-04-21T20:54:28.610Z,17.00
2019-04-21T20:57:07.491Z,18.20
2019-04-21T20:59:36.689Z,17.07
2019-04-21T21:02:10.200Z,18.57
2019-04-21T21:04:43.409Z,18.77
2019-04-21T21:07:36.363Z,20.37
2019-04-21T21:10:00.415Z,20.47
2019-04-21T21:12:39.106Z,20.67
2019-04-21T21:14:57.593Z,19.67
2019-04-21T21:17:53.863Z,18.40
2019-04-21T21:20:16.362Z,18.70
2019-04-21T21:22:42.323Z,19.53
2019-04-21T21:25:25.587Z,18.53
2019-04-21T21:27:48.229Z,17.63
2019-04-21T21:30:31.288Z,15.60
2019-04-21T21:33:10.519Z,15.47
2019-04-21T21:35:29.581Z,15.10
2019-04-21T21:38:13.557Z,14.67
2019-04-21T21:40:42.589Z,14.83
2019-04-21T21:43:06.482Z,14.47
2019-04-21T21:45:42.535Z,13.40
2019-04-21T21:48:21.932Z,12.70
2019-04-21T21:50:50.422Z,12.20
2019-04-21T21:53:21.520Z,10.70
2019-04-21T21:55:51.029Z,11.47
2019-04-21T21:58:29.852Z,13.33
2019-04-21T22:01:01.183Z,11.53
2019-04-21T22:03:38.975Z,11.73
2019-04-21T22:06:10.840Z,11.70
2019-04-21T22:08:40.600Z,13.50
2019-04-21T22:11:13.663Z,13.00
2019-04-21T22:13:53.295Z,11.77
2019-04-21T22:16:21.326Z,16.30
2019-04-21T22:19:27.398Z,18.07
2019-04-21T22:21:49.141Z,17.97
2019-04-21T22:24:10.882Z,18.73
2019-04-21T22:26:34.826Z,21.47
2019-04-21T22:29:07.711Z,25.43
2019-04-21T22:31:41.581Z,27.03
2019-04-21T22:34:17.694Z,23.40
2019-04-21T22:36:58.988Z,22.33
2019-04-21T22:39:41.792Z,21.10
2019-04-21T22:42:05.351Z,18.23
2019-04-21T22:44:30.237Z,17.10
2019-04-21T22:47:11.263Z,18.37
2019-04-21T22:49:36.897Z,18.53
2019-04-21T22:52:15.095Z,21.60
2019-04-21T22:54:46.687Z,22.37
2019-04-21T22:57:22.999Z,21.17
2019-04-21T23:00:00.945Z,20.17
2019-04-21T23:02:30.501Z,21.57
2019-04-21T23:05:02.550Z,22.33
2019-04-21T23:07:41.515Z,19.80
2019-04-21T23:10:09.444Z,22.43
2019-04-21T23:12:43.981Z,23.60
2019-04-21T23:15:19.471Z,21.43
2019-04-21T23:18:09.055Z,21.77
2019-04-21T23:20:46.124Z,22.00
2019-04-21T23:23:16.148Z,20.50
2019-04-21T23:25:45.939Z,23.67
2019-04-21T23:28:20.860Z,23.73
2019-04-21T23:31:00.836Z,22.23
2019-04-21T23:33:16.620Z,22.43
2019-04-21T23:35:49.394Z,21.87
2019-04-21T23:38:28.506Z,22.00
2019-04-21T23:40:59.944Z,22.60
2019-04-21T23:43:31.407Z,23.10
2019-04-21T23:46:10.401Z,23.00
2019-04-21T23:48:51.828Z,21.80
2019-04-21T23:51:23.303Z,22.67
2019-04-21T23:53:44.293Z,22.47
2019-04-21T23:56:21.696Z,22.47
2019-04-21T23:58:54.957Z,23.00
